METAR stanice u blizini

 

LYBE - Beograd / Surčin, Srbija
Ažurirano: 29/10/2020 20:00
Mist, Delimično oblačno
Mist, Delimično oblačno
 Pravac vetra S
Vetar: S 7 km/h
Temperatura: 12°C
Tačka rose: 12°C
Vlažnost: 100%
Pritisak: 1019 hPa
Pregled: Mist
Oblaci: Partly Cloudy
Vidljivost: 5 km
Cloud details: Few Clouds 305 m
Partly Cloudy 914 m
2020/10/29 19:00 LYBE 291900Z 01004KT 5000 BR FEW010 SCT030 12/12 Q1019 NOSIG
LYBT - Beograd / Batajnica, Srbija
Ažurirano: 29/10/2020 20:00
Mist, Delimično oblačno
Mist, Delimično oblačno
 Pravac vetra SSZ
Vetar: SSZ 4 km/h
Temperatura: 12°C
Tačka rose: 12°C
Vlažnost: 100%
Pritisak: 1019 hPa
Pregled: Mist
Oblaci: Partly Cloudy
Vidljivost: 5 km
2020/10/29 19:00 LYBT 291900Z 34002KT 5000 BR NSC 12/12 Q1019 NOSIG
LYVR - Vršac, Srbija
Ažurirano: 29/10/2020 20:00
Mist, Oblačno
Mist, Oblačno
 Pravac vetra SSI
Vetar: SSI 6 km/h
Temperatura: 12°C
Tačka rose: 10°C
Vlažnost: 88%
Pritisak: 1019 hPa
Pregled: Mist
Oblaci: Oblačno
Vidljivost: 5 km
Cloud details: Mostly Cloudy 183 m
Mostly Cloudy 1250 m
Oblačno 1494 m
2020/10/29 19:00 LYVR 291900Z AUTO 02003KT 350V060 4500 BR BKN006/// BKN041/// OVC049/// 12/10 Q1019
 
LYKV - Lađevci, Srbija
Ažurirano: 29/10/2020 20:00
Mostly Cloudy
Mostly Cloudy
 Pravac vetra varies
Vetar: varies 4 km/h
Temperatura: 12°C
Tačka rose: 12°C
Vlažnost: 100%
Pritisak: 1019 hPa
Oblaci: Mostly Cloudy
Vidljivost: 10 km
Cloud details: Mostly Cloudy 1006 m
2020/10/29 19:00 LYKV 291900Z VRB02KT 9999 BKN033 12/12 Q1019 NOSIG
LYNI - Niš, Srbija
Ažurirano: 29/10/2020 20:00
Vedro
Vedro
 Pravac vetra SSZ
Vetar: SSZ 11 km/h
Temperatura: 13°C
Tačka rose: 9°C
Vlažnost: 77%
Pritisak: 1018 hPa
Pregled: Vedro
Vidljivost: greater than 10 km
2020/10/29 19:00 LYNI 291900Z 33006KT 300V010 CAVOK 13/09 Q1018 NOSIG
BKPR - Priština, Srbija
Ažurirano: 29/10/2020 20:30
Vedro
Vedro
 Pravac vetra varies
Vetar: varies 4 km/h
Temperatura: 10°C
Tačka rose: 6°C
Vlažnost: 76%
Pritisak: 1018 hPa
Pregled: Vedro
Vidljivost: greater than 10 km
2020/10/29 19:30 BKPR 291930Z VRB02KT CAVOK 10/06 Q1018 NOSIG
 
LHPP - Pecs / Pogany, Hungary
Ažurirano: 29/10/2020 18:45
NOT Current
Mostly Cloudy
Mostly Cloudy
 Pravac vetra SSZ
Vetar: SSZ 9 km/h
Temperatura: 11°C
Tačka rose: 10°C
Vlažnost: 94%
Pritisak: 1020 hPa
Oblaci: Mostly Cloudy
Vidljivost: 8 km
Cloud details: Few Clouds 396 m
Partly Cloudy 792 m
Mostly Cloudy 3048 m
2020/10/29 17:45 LHPP 291745Z 34005KT 8000 FEW013 SCT026 BKN100 11/10 Q1020 RERA
LHUD - Szeged, Hungary
Ažurirano: 04/07/2019 01:45
NOT Current
Vedro
Vedro
 Pravac vetra S
Vetar: S 7 km/h
Temperatura: 18°C
Tačka rose: 13°C
Vlažnost: 73%
Pritisak: 1019 hPa
Pregled: Vedro
Vidljivost: greater than 10 km
2019/07/03 23:45 LHUD 032345Z 35004KT CAVOK 18/13 Q1019
LRTR - Timisoara, Romania
Ažurirano: 29/10/2020 20:00
Slaba kiša, Mist, Pretežno oblačno
Slaba kiša, Mist, Pretežno oblačno
 Pravac vetra ZSZ
Vetar: ZSZ 7 km/h
Temperatura: 11°C
Tačka rose: 11°C
Vlažnost: 100%
Pritisak: 1019 hPa
Pregled: Slaba kiša, Mist
Oblaci: Mostly Cloudy
Vidljivost: 5 km
Cloud details: Partly Cloudy 274 m
Mostly Cloudy 1219 m
2020/10/29 19:00 LRTR 291900Z 30004KT 4600 -RA BR SCT009 BKN040 11/11 Q1019
 
LRCV - Craiova, Romania
Ažurirano: 29/10/2020 20:00
Partly Cloudy
Partly Cloudy
 Pravac vetra J
Vetar: J 9 km/h
Temperatura: 12°C
Tačka rose: 11°C
Vlažnost: 94%
Pritisak: 1016 hPa
Oblaci: Partly Cloudy
Vidljivost: 6 km
2020/10/29 19:00 LRCV 291900Z 19005KT 6000 NSC 12/11 Q1016
LBSF - Sofia, Bulgaria
Ažurirano: 29/10/2020 20:00
Partly Cloudy
Partly Cloudy
 Pravac vetra JI
Vetar: JI 4 km/h
Temperatura: 8°C
Tačka rose: 8°C
Vlažnost: 100%
Pritisak: 1018 hPa
Oblaci: Partly Cloudy
Vidljivost: 6 km
2020/10/29 19:00 LBSF 291900Z 14002KT 6000 NSC 08/08 Q1018 TEMPO 3000 BR
LWSK - Skoplje, Makedonija
Ažurirano: 29/10/2020 20:00
Vedro
Vedro
 Pravac vetra I
Vetar: I 2 km/h
Temperatura: 10°C
Tačka rose: 8°C
Vlažnost: 88%
Pritisak: 1018 hPa
Pregled: Vedro
Vidljivost: greater than 10 km
2020/10/29 19:00 LWSK 291900Z 08001KT CAVOK 10/08 Q1018 NOSIG
 
LYPG - Podgorica, Crna Gora
Ažurirano: 29/10/2020 20:00
Partly Cloudy
Partly Cloudy
 Pravac vetra varies
Vetar: varies 2 km/h
Temperatura: 15°C
Tačka rose: 11°C
Vlažnost: 77%
Pritisak: 1018 hPa
Oblaci: Partly Cloudy
Vidljivost: 10 km
Cloud details: Few Clouds 1524 m
Partly Cloudy 2743 m
2020/10/29 19:00 LYPG 291900Z VRB01KT 9999 FEW050 SCT090 15/11 Q1018 NOSIG
LQSA - Sarajevo, Bosna i Hercegovina
Ažurirano: 29/10/2020 20:00
Mostly Cloudy
Mostly Cloudy
 Pravac vetra varies
Vetar: varies 4 km/h
Temperatura: 10°C
Tačka rose: 10°C
Vlažnost: 100%
Pritisak: 1019 hPa
Oblaci: Mostly Cloudy
Vidljivost: 7 km
Cloud details: Few Clouds 823 m
Mostly Cloudy 1219 m
2020/10/29 19:00 LQSA 291900Z VRB02KT 7000 FEW027 BKN040 10/10 Q1019
LDOS - Osijek, Hrvatksa
Ažurirano: 29/10/2020 20:00
Slaba kiša, Mist, Oblačno
Slaba kiša, Mist, Oblačno
 Pravac vetra ZJZ
Vetar: ZJZ 9 km/h
Temperatura: 11°C
Tačka rose: 11°C
Vlažnost: 100%
Pritisak: 1020 hPa
Pregled: Slaba kiša, Mist
Oblaci: Oblačno
Vidljivost: 4 km
Cloud details: Mostly Cloudy 213 m
Oblačno 701 m
2020/10/29 19:00 LDOS 291900Z 24005KT 4000 -RA BR BKN007 OVC023 11/11 Q1020